createdAt,value
2022-11-26T00:03:19.341Z,0
2022-11-26T00:08:41.801Z,0
2022-11-26T00:14:30.122Z,0
2022-11-26T00:20:03.746Z,0
2022-11-26T00:25:14.654Z,0
2022-11-26T00:30:39.221Z,0
2022-11-26T00:36:39.641Z,0
2022-11-26T00:42:08.027Z,0
2022-11-26T00:47:32.732Z,0
2022-11-26T00:52:53.465Z,0
2022-11-26T00:58:40.112Z,0
2022-11-26T01:03:55.275Z,0
2022-11-26T01:09:27.497Z,0
2022-11-26T01:15:20.567Z,0
2022-11-26T01:20:39.039Z,0
2022-11-26T01:26:14.185Z,0
2022-11-26T01:31:52.796Z,0
2022-11-26T01:37:17.023Z,0
2022-11-26T01:42:45.161Z,0
2022-11-26T01:48:12.488Z,2.4
2022-11-26T01:53:45.106Z,3.6
2022-11-26T01:59:20.418Z,0
2022-11-26T02:04:55.802Z,0
2022-11-26T02:10:38.941Z,0
2022-11-26T02:16:08.432Z,0
2022-11-26T02:21:15.672Z,0
2022-11-26T02:27:15.150Z,0
2022-11-26T02:32:31.562Z,0
2022-11-26T02:37:50.638Z,0
2022-11-26T02:43:27.143Z,0
2022-11-26T02:49:04.447Z,0
2022-11-26T02:54:31.653Z,0
2022-11-26T03:00:11.237Z,0
2022-11-26T03:05:30.817Z,2.4
2022-11-26T03:11:11.885Z,5.9
2022-11-26T03:16:45.171Z,3.6
2022-11-26T03:22:08.074Z,0
2022-11-26T03:27:51.600Z,0
2022-11-26T03:33:20.674Z,3.6
2022-11-26T03:39:03.607Z,0
2022-11-26T03:44:21.517Z,0
2022-11-26T03:50:00.321Z,0
2022-11-26T03:55:26.747Z,0
2022-11-26T04:01:12.492Z,0
2022-11-26T04:06:30.467Z,0
2022-11-26T04:12:11.996Z,4.8
2022-11-26T04:17:49.955Z,4.8
2022-11-26T04:22:57.923Z,0
2022-11-26T04:28:39.486Z,0
2022-11-26T04:34:14.992Z,2.4
2022-11-26T04:39:43.570Z,2.4
2022-11-26T04:45:25.446Z,0
2022-11-26T04:50:39.393Z,0
2022-11-26T04:56:08.494Z,0
2022-11-26T05:01:38.074Z,0
2022-11-26T05:07:24.998Z,0
2022-11-26T05:13:06.530Z,0
2022-11-26T05:18:18.445Z,0
2022-11-26T05:23:51.288Z,0
2022-11-26T05:29:33.003Z,0
2022-11-26T05:35:05.093Z,0
2022-11-26T05:40:35.180Z,0
2022-11-26T05:46:03.667Z,0
2022-11-26T05:51:42.040Z,0
2022-11-26T05:57:00.209Z,0
2022-11-26T06:02:44.347Z,0
2022-11-26T06:08:12.758Z,0
2022-11-26T06:13:31.536Z,0
2022-11-26T06:19:15.816Z,0
2022-11-26T06:24:56.593Z,0
2022-11-26T06:30:14.858Z,0
2022-11-26T06:35:55.317Z,0
2022-11-26T06:41:23.828Z,0
2022-11-26T06:46:39.503Z,0
2022-11-26T06:52:16.294Z,0
2022-11-26T06:57:46.861Z,0
2022-11-26T07:03:13.425Z,0
2022-11-26T07:08:47.869Z,0
2022-11-26T07:14:31.514Z,0
2022-11-26T07:20:14.533Z,0
2022-11-26T07:25:30.065Z,0
2022-11-26T07:30:54.427Z,2.4
2022-11-26T07:36:32.011Z,0
2022-11-26T07:42:15.331Z,3.6
2022-11-26T07:47:39.442Z,4.8
2022-11-26T07:53:02.696Z,0
2022-11-26T07:58:36.410Z,0
2022-11-26T08:04:27.008Z,0
2022-11-26T08:09:52.029Z,0
2022-11-26T08:15:26.975Z,0
2022-11-26T08:20:47.258Z,0
2022-11-26T08:26:30.955Z,0
2022-11-26T08:32:05.932Z,0
2022-11-26T08:37:36.600Z,0
2022-11-26T08:42:50.650Z,0
2022-11-26T08:48:31.672Z,0
2022-11-26T08:54:16.609Z,0
2022-11-26T08:59:21.151Z,0
2022-11-26T09:05:08.799Z,0
2022-11-26T09:10:41.475Z,0
2022-11-26T09:16:16.573Z,0
2022-11-26T09:21:41.388Z,0
2022-11-26T09:27:08.228Z,0
2022-11-26T09:32:41.485Z,0
2022-11-26T09:38:07.576Z,0
2022-11-26T09:43:59.502Z,0
2022-11-26T09:49:09.204Z,0
2022-11-26T09:55:01.260Z,0
2022-11-26T10:00:30.791Z,0
2022-11-26T10:06:03.085Z,0
2022-11-26T10:11:39.511Z,0
2022-11-26T10:16:57.943Z,0
2022-11-26T10:22:29.214Z,0
2022-11-26T10:28:11.527Z,3.6
2022-11-26T10:33:36.485Z,3.6
2022-11-26T10:39:22.045Z,0
2022-11-26T10:44:51.491Z,4.8
2022-11-26T10:50:48.356Z,4.8
2022-11-26T10:55:40.841Z,7.2
2022-11-26T11:01:27.798Z,4.8
2022-11-26T11:06:58.068Z,7.2
2022-11-26T11:12:21.627Z,7.2
2022-11-26T11:18:16.129Z,4.8
2022-11-26T11:24:06.916Z,5.9
2022-11-26T11:29:07.409Z,7.2
2022-11-26T11:34:35.563Z,8.4
2022-11-26T11:40:17.120Z,5.9
2022-11-26T11:46:00.350Z,7.2
2022-11-26T11:51:31.796Z,9.6
2022-11-26T11:56:52.691Z,8.4
2022-11-26T12:02:15.078Z,8.4
2022-11-26T12:07:57.776Z,5.9
2022-11-26T12:13:20.593Z,5.9
2022-11-26T12:19:05.119Z,7.2
2022-11-26T12:24:46.197Z,7.2
2022-11-26T12:30:02.978Z,8.4
2022-11-26T12:35:35.939Z,8.4
2022-11-26T12:41:04.962Z,7.2
2022-11-26T12:46:58.867Z,7.2
2022-11-26T12:52:19.245Z,9.6
2022-11-26T12:58:11.367Z,9.6
2022-11-26T13:03:45.586Z,9.6
2022-11-26T13:08:55.805Z,7.2
2022-11-26T13:14:24.429Z,9.6
2022-11-26T13:20:17.890Z,9.6
2022-11-26T13:25:50.763Z,8.4
2022-11-26T13:31:15.960Z,8.4
2022-11-26T13:36:54.835Z,7.2
2022-11-26T13:42:17.414Z,7.2
2022-11-26T13:47:51.790Z,10.7
2022-11-26T13:53:27.265Z,11.9
2022-11-26T13:59:05.326Z,9.6
2022-11-26T14:04:41.036Z,7.2
2022-11-26T14:10:12.962Z,7.2
2022-11-26T14:15:46.854Z,10.7
2022-11-26T14:21:21.464Z,8.4
2022-11-26T14:26:58.506Z,9.6
2022-11-26T14:32:36.306Z,10.7
2022-11-26T14:37:46.850Z,9.6
2022-11-26T14:43:28.938Z,8.4
2022-11-26T14:49:03.541Z,9.6
2022-11-26T14:54:47.014Z,7.2
2022-11-26T14:59:56.862Z,8.4
2022-11-26T15:05:45.536Z,8.4
2022-11-26T15:11:21.558Z,7.2
2022-11-26T15:16:34.223Z,9.6
2022-11-26T15:22:15.684Z,8.4
2022-11-26T15:27:59.561Z,7.2
2022-11-26T15:33:24.439Z,5.9
2022-11-26T15:38:46.848Z,5.9
2022-11-26T15:44:36.510Z,3.6
2022-11-26T15:50:15.361Z,0
2022-11-26T15:55:47.609Z,0
2022-11-26T16:00:55.574Z,0
2022-11-26T16:06:52.370Z,0
2022-11-26T16:12:25.176Z,0
2022-11-26T16:17:37.815Z,0
2022-11-26T16:23:02.061Z,0
2022-11-26T16:29:01.735Z,0
2022-11-26T16:34:18.404Z,0
2022-11-26T16:39:43.824Z,0
2022-11-26T16:45:33.239Z,0
2022-11-26T16:50:59.763Z,0
2022-11-26T16:56:34.161Z,0
2022-11-26T17:02:10.851Z,0
2022-11-26T17:07:15.595Z,0
2022-11-26T17:13:09.838Z,0
2022-11-26T17:18:34.415Z,0
2022-11-26T17:23:58.579Z,0
2022-11-26T17:29:39.638Z,0
2022-11-26T17:35:09.086Z,0
2022-11-26T17:40:52.260Z,0
2022-11-26T17:46:14.939Z,0
2022-11-26T17:51:41.195Z,0
2022-11-26T17:57:17.914Z,0
2022-11-26T18:02:32.876Z,0
2022-11-26T18:08:18.683Z,0
2022-11-26T18:13:58.580Z,0
2022-11-26T18:19:42.205Z,0
2022-11-26T18:24:39.822Z,0
2022-11-26T18:30:22.327Z,0
2022-11-26T18:35:59.802Z,0
2022-11-26T18:41:20.343Z,0
2022-11-26T18:47:02.494Z,0
2022-11-26T18:52:42.643Z,0
2022-11-26T18:58:06.756Z,0
2022-11-26T19:03:41.187Z,0
2022-11-26T19:09:08.759Z,0
2022-11-26T19:14:43.818Z,0
2022-11-26T19:20:10.035Z,0
2022-11-26T19:25:57.702Z,0
2022-11-26T19:31:20.569Z,0
2022-11-26T19:36:50.406Z,0
2022-11-26T19:42:08.758Z,0
2022-11-26T19:47:38.508Z,0
2022-11-26T19:53:21.878Z,0
2022-11-26T19:58:48.320Z,0
2022-11-26T20:04:20.716Z,0
2022-11-26T20:10:10.599Z,0
2022-11-26T20:15:24.482Z,0
2022-11-26T20:20:52.785Z,0
2022-11-26T20:26:42.255Z,0
2022-11-26T20:32:09.185Z,0
2022-11-26T20:37:24.743Z,0
2022-11-26T20:43:09.271Z,0
2022-11-26T20:48:31.411Z,0
2022-11-26T20:54:08.012Z,0
2022-11-26T20:59:31.907Z,0
2022-11-26T21:05:18.392Z,0
2022-11-26T21:10:38.502Z,0
2022-11-26T21:16:16.126Z,0
2022-11-26T21:22:01.165Z,0
2022-11-26T21:27:07.306Z,0
2022-11-26T21:32:39.649Z,0
2022-11-26T21:38:26.738Z,0
2022-11-26T21:43:52.328Z,0
2022-11-26T21:49:18.741Z,0
2022-11-26T21:55:11.456Z,0
2022-11-26T22:00:39.226Z,0
2022-11-26T22:06:03.848Z,0
2022-11-26T22:11:32.133Z,0
2022-11-26T22:16:59.032Z,0
2022-11-26T22:22:43.590Z,0
2022-11-26T22:28:13.972Z,0
2022-11-26T22:33:52.301Z,0
2022-11-26T22:39:15.869Z,0
2022-11-26T22:44:36.445Z,0
2022-11-26T22:50:07.692Z,0
2022-11-26T22:55:57.033Z,0
2022-11-26T23:01:06.189Z,0
2022-11-26T23:06:51.098Z,0
2022-11-26T23:12:29.385Z,0
2022-11-26T23:18:04.249Z,0
2022-11-26T23:23:28.278Z,0
2022-11-26T23:28:41.184Z,0
2022-11-26T23:34:37.860Z,0
2022-11-26T23:40:10.509Z,0
2022-11-26T23:45:15.691Z,0
2022-11-26T23:51:01.544Z,0
2022-11-26T23:56:38.342Z,0
